INFORMAÇÕES DO AERODROMO
Icao Aerodromo ROYN Nome do Aerodromo Yonaguni Airport Cidade Yonaguni Jima
Código GPS ROYN Elevação Média 70 ft Tipo de Aerodromo Aeroporto Médio Porte

INFORMAÇÃO DE PISTA
Pista 08 Comprimento da Pista 4920 ft Largura da Pista 150 ft
Elevação da Pista 71 ft Distância de Area de Escape da Pista 0 ft Orientação da Pista 75
Pista 26 Comprimento da Pista 4920 ft Largura da Pista 150 ft
Elevação da Pista 48 ft Distância de Area de Escape da Pista 0 ft Orientação da Pista 255

FREQUÊNCIAS DO AERODROMO
Tipo A/G Nome REMOTE Frequência 118.5 MHZ

INFORMAÇÕES DE NAVEGAÇÃO PRÓXIMO AO AERODROMO
Tipo VOR-DME Nome Yonaguni Frequência 115050 KHZ

Informações de Meteorologia(METAR atual)
METAR DE ROYN
ADDS - METARS form results

(0538 UTC 19 June 2019)
Data provider http://aviationweather.gov/metar/data/
 
METAR text: ROYN 190500Z AUTO 20011KT 9999 SCT014 32/28 Q1007
Conditions at: ROYN (YONAGUNI AIRPORT, JP) observed 0500 UTC 19 June 2019
Temperature: 32.0°C (90°F)
Dewpoint: 28.0°C (82°F) [RH = 80%]
Pressure (altimeter): 29.73 inches Hg (1007.0 mb)
Winds: from the SSW (200 degrees) at 13 MPH (11 knots; 5.7 m/s)
Visibility: 6 or more miles (10+ km)
Ceiling: at least 12,000 feet AGL
Clouds: scattered clouds at 1400 feet AGL
Weather: no significant weather observed at this time

MAPA DO AERODROMO


Desenvolvido por Virtual Airlines Manager




Modificado por Servidor Brasil Amigos